sensor_id;sensor_type;location;lat;lon;timestamp;temperature;humidity
53282;DHT22;39167;52.794;6.892;2023-04-25T00:00:12;6.70;99.90
53282;DHT22;39167;52.794;6.892;2023-04-25T00:02:38;6.70;99.90
53282;DHT22;39167;52.794;6.892;2023-04-25T00:05:04;6.70;99.90
53282;DHT22;39167;52.794;6.892;2023-04-25T00:07:30;6.70;99.90
53282;DHT22;39167;52.794;6.892;2023-04-25T00:09:56;6.70;99.90
53282;DHT22;39167;52.794;6.892;2023-04-25T00:12:22;6.60;99.90
53282;DHT22;39167;52.794;6.892;2023-04-25T00:14:48;6.60;99.90
53282;DHT22;39167;52.794;6.892;2023-04-25T00:17:16;6.60;99.90
53282;DHT22;39167;52.794;6.892;2023-04-25T00:19:44;6.60;99.90
53282;DHT22;39167;52.794;6.892;2023-04-25T00:22:14;6.60;99.90
53282;DHT22;39167;52.794;6.892;2023-04-25T00:24:40;6.60;99.90
53282;DHT22;39167;52.794;6.892;2023-04-25T00:27:05;6.60;99.90
53282;DHT22;39167;52.794;6.892;2023-04-25T00:29:31;7.50;99.90
53282;DHT22;39167;52.794;6.892;2023-04-25T00:31:57;6.60;99.90
53282;DHT22;39167;52.794;6.892;2023-04-25T00:34:22;6.60;99.90
53282;DHT22;39167;52.794;6.892;2023-04-25T00:36:48;6.50;99.90
53282;DHT22;39167;52.794;6.892;2023-04-25T00:39:14;6.50;99.90
53282;DHT22;39167;52.794;6.892;2023-04-25T00:41:39;6.50;99.90
53282;DHT22;39167;52.794;6.892;2023-04-25T00:44:08;6.90;99.90
53282;DHT22;39167;52.794;6.892;2023-04-25T00:46:37;6.50;99.90
53282;DHT22;39167;52.794;6.892;2023-04-25T00:49:03;6.50;99.90
53282;DHT22;39167;52.794;6.892;2023-04-25T00:51:30;6.50;99.90
53282;DHT22;39167;52.794;6.892;2023-04-25T00:53:58;6.50;99.90
53282;DHT22;39167;52.794;6.892;2023-04-25T00:56:24;6.50;99.90
53282;DHT22;39167;52.794;6.892;2023-04-25T00:58:53;6.50;99.90
53282;DHT22;39167;52.794;6.892;2023-04-25T01:01:22;6.50;99.90
53282;DHT22;39167;52.794;6.892;2023-04-25T01:03:49;6.50;99.90
53282;DHT22;39167;52.794;6.892;2023-04-25T01:06:16;6.50;99.90
53282;DHT22;39167;52.794;6.892;2023-04-25T01:08:42;6.50;99.90
53282;DHT22;39167;52.794;6.892;2023-04-25T01:11:08;6.50;99.90
53282;DHT22;39167;52.794;6.892;2023-04-25T01:13:34;6.40;99.90
53282;DHT22;39167;52.794;6.892;2023-04-25T01:16:01;6.40;99.90
53282;DHT22;39167;52.794;6.892;2023-04-25T01:18:27;6.40;99.90
53282;DHT22;39167;52.794;6.892;2023-04-25T01:20:54;6.30;99.90
53282;DHT22;39167;52.794;6.892;2023-04-25T01:23:21;6.30;99.90
53282;DHT22;39167;52.794;6.892;2023-04-25T01:25:48;6.20;99.90
53282;DHT22;39167;52.794;6.892;2023-04-25T01:28:13;6.30;99.90
53282;DHT22;39167;52.794;6.892;2023-04-25T01:30:40;6.10;99.90
53282;DHT22;39167;52.794;6.892;2023-04-25T01:33:08;7.00;99.90
53282;DHT22;39167;52.794;6.892;2023-04-25T01:35:34;6.10;99.90
53282;DHT22;39167;52.794;6.892;2023-04-25T01:38:00;6.10;99.90
53282;DHT22;39167;52.794;6.892;2023-04-25T01:40:27;6.00;99.90
53282;DHT22;39167;52.794;6.892;2023-04-25T01:42:53;6.00;99.90
53282;DHT22;39167;52.794;6.892;2023-04-25T01:45:19;6.00;99.90
53282;DHT22;39167;52.794;6.892;2023-04-25T01:47:45;6.00;99.90
53282;DHT22;39167;52.794;6.892;2023-04-25T01:50:14;6.00;99.90
53282;DHT22;39167;52.794;6.892;2023-04-25T01:52:40;6.50;99.90
53282;DHT22;39167;52.794;6.892;2023-04-25T01:55:06;6.80;99.90
53282;DHT22;39167;52.794;6.892;2023-04-25T01:57:32;6.00;99.90
53282;DHT22;39167;52.794;6.892;2023-04-25T02:00:00;6.00;99.90
53282;DHT22;39167;52.794;6.892;2023-04-25T02:02:27;6.00;99.90
53282;DHT22;39167;52.794;6.892;2023-04-25T02:04:52;6.00;99.90
53282;DHT22;39167;52.794;6.892;2023-04-25T02:07:20;6.00;99.90
53282;DHT22;39167;52.794;6.892;2023-04-25T02:09:46;6.00;99.90
53282;DHT22;39167;52.794;6.892;2023-04-25T02:12:12;6.40;99.90
53282;DHT22;39167;52.794;6.892;2023-04-25T02:14:37;6.00;99.90
53282;DHT22;39167;52.794;6.892;2023-04-25T02:17:03;6.00;99.90
53282;DHT22;39167;52.794;6.892;2023-04-25T02:19:29;6.60;99.90
53282;DHT22;39167;52.794;6.892;2023-04-25T02:21:55;6.90;99.90
53282;DHT22;39167;52.794;6.892;2023-04-25T02:24:22;6.90;99.90
53282;DHT22;39167;52.794;6.892;2023-04-25T02:26:48;6.00;99.90
53282;DHT22;39167;52.794;6.892;2023-04-25T02:29:15;7.00;99.90
53282;DHT22;39167;52.794;6.892;2023-04-25T02:31:41;6.00;99.90
53282;DHT22;39167;52.794;6.892;2023-04-25T02:34:09;6.00;99.90
53282;DHT22;39167;52.794;6.892;2023-04-25T02:36:35;6.00;99.90
53282;DHT22;39167;52.794;6.892;2023-04-25T02:39:01;6.00;99.90
53282;DHT22;39167;52.794;6.892;2023-04-25T02:41:28;6.80;99.90
53282;DHT22;39167;52.794;6.892;2023-04-25T02:43:54;6.90;99.90
53282;DHT22;39167;52.794;6.892;2023-04-25T02:46:20;6.00;99.90
53282;DHT22;39167;52.794;6.892;2023-04-25T02:48:46;6.50;99.90
53282;DHT22;39167;52.794;6.892;2023-04-25T02:51:12;7.00;99.90
53282;DHT22;39167;52.794;6.892;2023-04-25T02:53:38;5.90;99.90
53282;DHT22;39167;52.794;6.892;2023-04-25T02:56:03;6.00;99.90
53282;DHT22;39167;52.794;6.892;2023-04-25T02:58:29;6.00;99.90
53282;DHT22;39167;52.794;6.892;2023-04-25T03:00:55;6.00;99.90
53282;DHT22;39167;52.794;6.892;2023-04-25T03:03:21;5.90;99.90
53282;DHT22;39167;52.794;6.892;2023-04-25T03:05:52;6.00;99.90
53282;DHT22;39167;52.794;6.892;2023-04-25T03:08:18;6.60;99.90
53282;DHT22;39167;52.794;6.892;2023-04-25T03:10:44;5.80;99.90
53282;DHT22;39167;52.794;6.892;2023-04-25T03:13:10;5.90;99.90
53282;DHT22;39167;52.794;6.892;2023-04-25T03:15:36;6.00;99.90
53282;DHT22;39167;52.794;6.892;2023-04-25T03:18:02;5.90;99.90
53282;DHT22;39167;52.794;6.892;2023-04-25T03:20:28;5.90;99.90
53282;DHT22;39167;52.794;6.892;2023-04-25T03:22:54;6.40;99.90
53282;DHT22;39167;52.794;6.892;2023-04-25T03:25:20;5.90;99.90
53282;DHT22;39167;52.794;6.892;2023-04-25T03:27:46;6.90;99.90
53282;DHT22;39167;52.794;6.892;2023-04-25T03:30:12;6.30;99.90
53282;DHT22;39167;52.794;6.892;2023-04-25T03:32:37;5.90;99.90
53282;DHT22;39167;52.794;6.892;2023-04-25T03:35:04;5.90;99.90
53282;DHT22;39167;52.794;6.892;2023-04-25T03:37:30;5.90;99.90
53282;DHT22;39167;52.794;6.892;2023-04-25T03:39:56;5.90;99.90
53282;DHT22;39167;52.794;6.892;2023-04-25T03:42:22;6.40;99.90
53282;DHT22;39167;52.794;6.892;2023-04-25T03:44:49;5.90;99.90
53282;DHT22;39167;52.794;6.892;2023-04-25T03:47:15;7.00;99.90
53282;DHT22;39167;52.794;6.892;2023-04-25T03:49:41;6.10;99.90
53282;DHT22;39167;52.794;6.892;2023-04-25T03:52:07;5.90;99.90
53282;DHT22;39167;52.794;6.892;2023-04-25T03:54:33;6.50;99.90
53282;DHT22;39167;52.794;6.892;2023-04-25T03:56:59;5.90;99.90
53282;DHT22;39167;52.794;6.892;2023-04-25T03:59:24;6.00;99.90
53282;DHT22;39167;52.794;6.892;2023-04-25T04:01:52;5.80;99.90
53282;DHT22;39167;52.794;6.892;2023-04-25T04:04:18;5.80;99.90
53282;DHT22;39167;52.794;6.892;2023-04-25T04:06:44;5.80;99.90
53282;DHT22;39167;52.794;6.892;2023-04-25T04:09:10;5.80;99.90
53282;DHT22;39167;52.794;6.892;2023-04-25T04:11:37;6.40;99.90
53282;DHT22;39167;52.794;6.892;2023-04-25T04:14:05;5.80;99.90
53282;DHT22;39167;52.794;6.892;2023-04-25T04:16:31;5.80;99.90
53282;DHT22;39167;52.794;6.892;2023-04-25T04:18:57;5.80;99.90
53282;DHT22;39167;52.794;6.892;2023-04-25T04:21:23;5.70;99.90
53282;DHT22;39167;52.794;6.892;2023-04-25T04:23:49;5.70;99.90
53282;DHT22;39167;52.794;6.892;2023-04-25T04:26:14;6.80;99.90
53282;DHT22;39167;52.794;6.892;2023-04-25T04:28:44;6.10;99.90
53282;DHT22;39167;52.794;6.892;2023-04-25T04:31:10;5.60;99.90
53282;DHT22;39167;52.794;6.892;2023-04-25T04:33:36;6.60;99.90
53282;DHT22;39167;52.794;6.892;2023-04-25T04:36:03;5.60;99.90
53282;DHT22;39167;52.794;6.892;2023-04-25T04:38:29;5.60;99.90
53282;DHT22;39167;52.794;6.892;2023-04-25T04:40:55;6.00;99.90
53282;DHT22;39167;52.794;6.892;2023-04-25T04:43:21;5.60;99.90
53282;DHT22;39167;52.794;6.892;2023-04-25T04:45:48;6.00;99.90
53282;DHT22;39167;52.794;6.892;2023-04-25T04:48:16;5.60;99.90
53282;DHT22;39167;52.794;6.892;2023-04-25T04:50:44;5.60;99.90
53282;DHT22;39167;52.794;6.892;2023-04-25T04:53:11;5.70;99.90
53282;DHT22;39167;52.794;6.892;2023-04-25T04:55:37;5.60;99.90
53282;DHT22;39167;52.794;6.892;2023-04-25T04:58:03;5.80;99.90
53282;DHT22;39167;52.794;6.892;2023-04-25T05:00:28;5.50;99.90
53282;DHT22;39167;52.794;6.892;2023-04-25T05:02:55;5.50;99.90
53282;DHT22;39167;52.794;6.892;2023-04-25T05:05:21;5.50;99.90
53282;DHT22;39167;52.794;6.892;2023-04-25T05:07:47;5.50;99.90
53282;DHT22;39167;52.794;6.892;2023-04-25T05:10:13;5.50;99.90
53282;DHT22;39167;52.794;6.892;2023-04-25T05:12:38;5.50;99.90
53282;DHT22;39167;52.794;6.892;2023-04-25T05:15:04;5.50;99.90
53282;DHT22;39167;52.794;6.892;2023-04-25T05:17:30;5.50;99.90
53282;DHT22;39167;52.794;6.892;2023-04-25T05:19:56;5.50;99.90
53282;DHT22;39167;52.794;6.892;2023-04-25T05:22:22;5.50;99.90
53282;DHT22;39167;52.794;6.892;2023-04-25T05:24:48;5.50;99.90
53282;DHT22;39167;52.794;6.892;2023-04-25T05:27:16;5.50;99.90
53282;DHT22;39167;52.794;6.892;2023-04-25T05:29:45;5.50;99.90
53282;DHT22;39167;52.794;6.892;2023-04-25T05:32:11;5.50;99.90
53282;DHT22;39167;52.794;6.892;2023-04-25T05:34:37;6.20;99.90
53282;DHT22;39167;52.794;6.892;2023-04-25T05:37:02;5.60;99.90
53282;DHT22;39167;52.794;6.892;2023-04-25T05:39:28;5.40;99.90
53282;DHT22;39167;52.794;6.892;2023-04-25T05:41:54;5.40;99.90
53282;DHT22;39167;52.794;6.892;2023-04-25T05:44:20;5.50;99.90
53282;DHT22;39167;52.794;6.892;2023-04-25T05:46:46;5.50;99.90
53282;DHT22;39167;52.794;6.892;2023-04-25T05:49:12;5.50;99.90
53282;DHT22;39167;52.794;6.892;2023-04-25T05:51:38;5.20;99.90
53282;DHT22;39167;52.794;6.892;2023-04-25T05:54:07;5.40;99.90
53282;DHT22;39167;52.794;6.892;2023-04-25T05:56:33;6.40;99.90
53282;DHT22;39167;52.794;6.892;2023-04-25T05:58:58;6.00;99.90
53282;DHT22;39167;52.794;6.892;2023-04-25T06:01:24;4.70;99.90
53282;DHT22;39167;52.794;6.892;2023-04-25T06:03:50;5.50;99.90
53282;DHT22;39167;52.794;6.892;2023-04-25T06:06:18;5.50;99.90
53282;DHT22;39167;52.794;6.892;2023-04-25T06:08:44;5.60;99.90
53282;DHT22;39167;52.794;6.892;2023-04-25T06:11:10;5.60;99.90
53282;DHT22;39167;52.794;6.892;2023-04-25T06:13:36;5.60;99.90
53282;DHT22;39167;52.794;6.892;2023-04-25T06:16:04;6.10;99.90
53282;DHT22;39167;52.794;6.892;2023-04-25T06:18:30;5.70;99.90
53282;DHT22;39167;52.794;6.892;2023-04-25T06:20:56;5.80;99.90
53282;DHT22;39167;52.794;6.892;2023-04-25T06:23:21;5.80;99.90
53282;DHT22;39167;52.794;6.892;2023-04-25T06:25:47;5.80;99.90
53282;DHT22;39167;52.794;6.892;2023-04-25T06:28:16;6.10;99.90
53282;DHT22;39167;52.794;6.892;2023-04-25T06:30:41;5.90;99.90
53282;DHT22;39167;52.794;6.892;2023-04-25T06:33:12;6.00;99.90
53282;DHT22;39167;52.794;6.892;2023-04-25T06:35:38;6.30;99.90
53282;DHT22;39167;52.794;6.892;2023-04-25T06:38:04;6.70;99.90
53282;DHT22;39167;52.794;6.892;2023-04-25T06:40:43;6.00;99.90
53282;DHT22;39167;52.794;6.892;2023-04-25T06:43:09;6.10;99.90
53282;DHT22;39167;52.794;6.892;2023-04-25T06:45:35;6.90;99.90
53282;DHT22;39167;52.794;6.892;2023-04-25T06:48:01;6.20;99.90
53282;DHT22;39167;52.794;6.892;2023-04-25T06:50:26;6.20;99.90
53282;DHT22;39167;52.794;6.892;2023-04-25T06:52:52;6.20;99.90
53282;DHT22;39167;52.794;6.892;2023-04-25T06:55:18;6.40;99.90
53282;DHT22;39167;52.794;6.892;2023-04-25T06:57:44;6.30;99.90
53282;DHT22;39167;52.794;6.892;2023-04-25T07:00:10;6.40;99.90
53282;DHT22;39167;52.794;6.892;2023-04-25T07:02:36;6.40;99.90
53282;DHT22;39167;52.794;6.892;2023-04-25T07:05:02;6.40;99.90
53282;DHT22;39167;52.794;6.892;2023-04-25T07:07:30;6.40;99.90
53282;DHT22;39167;52.794;6.892;2023-04-25T07:09:56;6.40;99.90
53282;DHT22;39167;52.794;6.892;2023-04-25T07:12:22;6.50;99.90
53282;DHT22;39167;52.794;6.892;2023-04-25T07:14:47;6.50;99.90
53282;DHT22;39167;52.794;6.892;2023-04-25T07:17:13;6.50;99.90
53282;DHT22;39167;52.794;6.892;2023-04-25T07:19:39;6.80;99.90
53282;DHT22;39167;52.794;6.892;2023-04-25T07:22:06;6.60;99.90
53282;DHT22;39167;52.794;6.892;2023-04-25T07:24:32;6.70;99.90
53282;DHT22;39167;52.794;6.892;2023-04-25T07:26:58;7.20;99.90
53282;DHT22;39167;52.794;6.892;2023-04-25T07:29:24;6.70;99.90
53282;DHT22;39167;52.794;6.892;2023-04-25T07:31:49;6.80;99.90
53282;DHT22;39167;52.794;6.892;2023-04-25T07:34:15;6.80;99.90
53282;DHT22;39167;52.794;6.892;2023-04-25T07:36:46;6.80;99.90
53282;DHT22;39167;52.794;6.892;2023-04-25T07:39:12;6.70;99.90
53282;DHT22;39167;52.794;6.892;2023-04-25T07:41:38;6.70;99.90
53282;DHT22;39167;52.794;6.892;2023-04-25T07:44:03;6.70;99.90
53282;DHT22;39167;52.794;6.892;2023-04-25T07:46:29;7.60;99.90
53282;DHT22;39167;52.794;6.892;2023-04-25T07:48:55;6.80;99.90
53282;DHT22;39167;52.794;6.892;2023-04-25T07:51:21;6.20;99.90
53282;DHT22;39167;52.794;6.892;2023-04-25T07:53:51;6.90;99.90
53282;DHT22;39167;52.794;6.892;2023-04-25T07:56:16;6.90;99.90
53282;DHT22;39167;52.794;6.892;2023-04-25T07:58:42;6.90;99.90
53282;DHT22;39167;52.794;6.892;2023-04-25T08:01:08;6.90;99.90
53282;DHT22;39167;52.794;6.892;2023-04-25T08:03:34;6.90;99.90
53282;DHT22;39167;52.794;6.892;2023-04-25T08:05:59;7.00;99.90
53282;DHT22;39167;52.794;6.892;2023-04-25T08:08:25;7.10;99.90
53282;DHT22;39167;52.794;6.892;2023-04-25T08:10:51;7.10;99.90
53282;DHT22;39167;52.794;6.892;2023-04-25T08:13:16;6.60;99.90
53282;DHT22;39167;52.794;6.892;2023-04-25T08:15:42;7.20;99.90
53282;DHT22;39167;52.794;6.892;2023-04-25T08:18:08;7.30;99.90
53282;DHT22;39167;52.794;6.892;2023-04-25T08:20:34;7.30;99.90
53282;DHT22;39167;52.794;6.892;2023-04-25T08:22:59;7.30;99.90
53282;DHT22;39167;52.794;6.892;2023-04-25T08:25:25;8.00;99.90
53282;DHT22;39167;52.794;6.892;2023-04-25T08:27:51;7.30;99.90
53282;DHT22;39167;52.794;6.892;2023-04-25T08:30:17;7.30;99.90
53282;DHT22;39167;52.794;6.892;2023-04-25T08:32:42;7.40;99.90
53282;DHT22;39167;52.794;6.892;2023-04-25T08:35:09;7.50;99.90
53282;DHT22;39167;52.794;6.892;2023-04-25T08:37:34;7.50;99.90
53282;DHT22;39167;52.794;6.892;2023-04-25T08:40:02;7.50;99.90
53282;DHT22;39167;52.794;6.892;2023-04-25T08:42:33;7.50;99.90
53282;DHT22;39167;52.794;6.892;2023-04-25T08:45:01;7.40;99.90
53282;DHT22;39167;52.794;6.892;2023-04-25T08:47:27;7.40;99.90
53282;DHT22;39167;52.794;6.892;2023-04-25T08:49:55;7.40;99.90
53282;DHT22;39167;52.794;6.892;2023-04-25T08:52:28;7.20;99.90
53282;DHT22;39167;52.794;6.892;2023-04-25T08:54:57;7.20;99.90
53282;DHT22;39167;52.794;6.892;2023-04-25T08:57:23;7.00;99.90
53282;DHT22;39167;52.794;6.892;2023-04-25T08:59:49;6.90;99.90
53282;DHT22;39167;52.794;6.892;2023-04-25T09:02:17;7.50;99.90
53282;DHT22;39167;52.794;6.892;2023-04-25T09:04:45;6.90;99.90
53282;DHT22;39167;52.794;6.892;2023-04-25T09:07:11;7.60;99.90
53282;DHT22;39167;52.794;6.892;2023-04-25T09:09:37;6.90;99.90
53282;DHT22;39167;52.794;6.892;2023-04-25T09:12:02;8.00;99.90
53282;DHT22;39167;52.794;6.892;2023-04-25T09:14:28;7.20;99.90
53282;DHT22;39167;52.794;6.892;2023-04-25T09:19:35;7.50;99.90
53282;DHT22;39167;52.794;6.892;2023-04-25T09:22:03;7.50;99.90
53282;DHT22;39167;52.794;6.892;2023-04-25T09:24:40;7.60;99.90
53282;DHT22;39167;52.794;6.892;2023-04-25T09:27:10;8.40;99.90
53282;DHT22;39167;52.794;6.892;2023-04-25T09:29:40;7.80;99.90
53282;DHT22;39167;52.794;6.892;2023-04-25T09:32:18;7.80;99.90
53282;DHT22;39167;52.794;6.892;2023-04-25T09:34:48;7.80;99.90
53282;DHT22;39167;52.794;6.892;2023-04-25T09:37:27;8.50;99.90
53282;DHT22;39167;52.794;6.892;2023-04-25T09:39:55;7.70;99.90
53282;DHT22;39167;52.794;6.892;2023-04-25T09:42:25;7.80;99.90
53282;DHT22;39167;52.794;6.892;2023-04-25T09:44:55;7.80;99.90
53282;DHT22;39167;52.794;6.892;2023-04-25T09:47:23;7.80;99.90
53282;DHT22;39167;52.794;6.892;2023-04-25T09:49:49;7.70;99.90
53282;DHT22;39167;52.794;6.892;2023-04-25T09:52:18;7.60;99.90
53282;DHT22;39167;52.794;6.892;2023-04-25T09:54:45;7.50;99.90
53282;DHT22;39167;52.794;6.892;2023-04-25T09:57:16;7.40;99.90
53282;DHT22;39167;52.794;6.892;2023-04-25T09:59:51;7.30;99.90
53282;DHT22;39167;52.794;6.892;2023-04-25T10:02:19;7.20;99.90
53282;DHT22;39167;52.794;6.892;2023-04-25T10:04:51;7.20;99.90
53282;DHT22;39167;52.794;6.892;2023-04-25T10:07:19;7.20;99.90
53282;DHT22;39167;52.794;6.892;2023-04-25T10:09:48;7.30;99.90
53282;DHT22;39167;52.794;6.892;2023-04-25T10:12:17;7.40;99.90
53282;DHT22;39167;52.794;6.892;2023-04-25T10:14:44;7.40;99.90
53282;DHT22;39167;52.794;6.892;2023-04-25T10:17:11;7.40;99.90
53282;DHT22;39167;52.794;6.892;2023-04-25T10:19:37;7.40;99.90
53282;DHT22;39167;52.794;6.892;2023-04-25T10:22:35;7.50;99.90
53282;DHT22;39167;52.794;6.892;2023-04-25T10:25:01;7.60;99.90
53282;DHT22;39167;52.794;6.892;2023-04-25T10:27:31;7.80;99.90
53282;DHT22;39167;52.794;6.892;2023-04-25T10:30:08;8.00;99.90
53282;DHT22;39167;52.794;6.892;2023-04-25T10:32:38;8.10;99.90
53282;DHT22;39167;52.794;6.892;2023-04-25T10:35:15;8.10;99.90
53282;DHT22;39167;52.794;6.892;2023-04-25T10:40:23;8.50;99.90
53282;DHT22;39167;52.794;6.892;2023-04-25T10:42:52;8.40;99.90
53282;DHT22;39167;52.794;6.892;2023-04-25T10:45:20;7.90;99.90
53282;DHT22;39167;52.794;6.892;2023-04-25T10:47:46;7.60;99.90
53282;DHT22;39167;52.794;6.892;2023-04-25T10:50:14;7.40;99.90
53282;DHT22;39167;52.794;6.892;2023-04-25T10:52:42;7.10;99.90
53282;DHT22;39167;52.794;6.892;2023-04-25T10:55:08;7.00;99.90
53282;DHT22;39167;52.794;6.892;2023-04-25T10:57:44;7.10;99.90
53282;DHT22;39167;52.794;6.892;2023-04-25T11:00:19;7.10;99.90
53282;DHT22;39167;52.794;6.892;2023-04-25T11:02:58;7.20;99.90
53282;DHT22;39167;52.794;6.892;2023-04-25T11:05:32;7.20;99.90
53282;DHT22;39167;52.794;6.892;2023-04-25T11:07:58;7.30;99.90
53282;DHT22;39167;52.794;6.892;2023-04-25T11:10:32;7.40;99.90
53282;DHT22;39167;52.794;6.892;2023-04-25T11:12:58;7.60;99.90
53282;DHT22;39167;52.794;6.892;2023-04-25T11:15:25;7.70;99.90
53282;DHT22;39167;52.794;6.892;2023-04-25T11:17:52;7.80;99.90
53282;DHT22;39167;52.794;6.892;2023-04-25T11:20:18;8.00;99.90
53282;DHT22;39167;52.794;6.892;2023-04-25T11:22:45;8.10;99.90
53282;DHT22;39167;52.794;6.892;2023-04-25T11:25:13;8.20;99.90
53282;DHT22;39167;52.794;6.892;2023-04-25T11:30:18;8.20;99.90
53282;DHT22;39167;52.794;6.892;2023-04-25T11:32:44;8.20;99.90
53282;DHT22;39167;52.794;6.892;2023-04-25T11:35:11;8.20;99.90
53282;DHT22;39167;52.794;6.892;2023-04-25T11:37:42;8.20;99.90
53282;DHT22;39167;52.794;6.892;2023-04-25T11:40:08;8.30;99.90
53282;DHT22;39167;52.794;6.892;2023-04-25T11:42:45;8.40;99.90
53282;DHT22;39167;52.794;6.892;2023-04-25T11:45:11;8.40;99.90
53282;DHT22;39167;52.794;6.892;2023-04-25T11:47:37;8.20;99.90
53282;DHT22;39167;52.794;6.892;2023-04-25T11:50:05;7.90;99.90
53282;DHT22;39167;52.794;6.892;2023-04-25T11:52:44;7.70;99.90
53282;DHT22;39167;52.794;6.892;2023-04-25T11:55:17;7.50;99.90
53282;DHT22;39167;52.794;6.892;2023-04-25T11:57:45;7.40;99.90
53282;DHT22;39167;52.794;6.892;2023-04-25T12:00:12;7.40;99.90
53282;DHT22;39167;52.794;6.892;2023-04-25T12:02:52;7.60;99.90
53282;DHT22;39167;52.794;6.892;2023-04-25T12:05:18;8.10;99.90
53282;DHT22;39167;52.794;6.892;2023-04-25T12:07:46;7.90;99.90
53282;DHT22;39167;52.794;6.892;2023-04-25T12:10:14;8.00;99.90
53282;DHT22;39167;52.794;6.892;2023-04-25T12:12:45;8.20;99.90
53282;DHT22;39167;52.794;6.892;2023-04-25T12:15:18;8.30;99.90
53282;DHT22;39167;52.794;6.892;2023-04-25T12:17:51;8.40;99.90
53282;DHT22;39167;52.794;6.892;2023-04-25T12:20:23;8.40;99.90
53282;DHT22;39167;52.794;6.892;2023-04-25T12:22:49;8.50;99.90
53282;DHT22;39167;52.794;6.892;2023-04-25T12:25:41;8.40;99.90
53282;DHT22;39167;52.794;6.892;2023-04-25T12:28:17;8.40;99.90
53282;DHT22;39167;52.794;6.892;2023-04-25T12:30:57;8.50;99.90
53282;DHT22;39167;52.794;6.892;2023-04-25T12:33:24;8.50;99.90
53282;DHT22;39167;52.794;6.892;2023-04-25T12:35:50;8.50;99.90
53282;DHT22;39167;52.794;6.892;2023-04-25T12:38:29;8.50;99.90
53282;DHT22;39167;52.794;6.892;2023-04-25T12:40:56;8.50;99.90
53282;DHT22;39167;52.794;6.892;2023-04-25T12:43:22;8.60;99.90
53282;DHT22;39167;52.794;6.892;2023-04-25T12:45:53;8.70;99.90
53282;DHT22;39167;52.794;6.892;2023-04-25T12:48:19;8.70;99.90
53282;DHT22;39167;52.794;6.892;2023-04-25T12:50:45;8.80;99.90
53282;DHT22;39167;52.794;6.892;2023-04-25T12:53:14;8.80;99.90
53282;DHT22;39167;52.794;6.892;2023-04-25T12:55:40;8.90;99.90
53282;DHT22;39167;52.794;6.892;2023-04-25T12:58:06;8.90;99.90
53282;DHT22;39167;52.794;6.892;2023-04-25T13:00:33;8.90;99.90
53282;DHT22;39167;52.794;6.892;2023-04-25T13:02:59;8.70;99.90
53282;DHT22;39167;52.794;6.892;2023-04-25T13:05:25;8.60;99.90
53282;DHT22;39167;52.794;6.892;2023-04-25T13:07:51;8.60;99.90
53282;DHT22;39167;52.794;6.892;2023-04-25T13:10:17;8.70;99.90
53282;DHT22;39167;52.794;6.892;2023-04-25T13:12:43;8.70;99.90
53282;DHT22;39167;52.794;6.892;2023-04-25T13:15:10;8.80;99.90
53282;DHT22;39167;52.794;6.892;2023-04-25T13:17:37;8.80;99.90
53282;DHT22;39167;52.794;6.892;2023-04-25T13:20:05;8.80;99.90
53282;DHT22;39167;52.794;6.892;2023-04-25T13:22:34;8.70;99.90
53282;DHT22;39167;52.794;6.892;2023-04-25T13:25:03;8.70;99.90
53282;DHT22;39167;52.794;6.892;2023-04-25T13:27:28;8.60;99.90
53282;DHT22;39167;52.794;6.892;2023-04-25T13:29:54;8.60;99.90
53282;DHT22;39167;52.794;6.892;2023-04-25T13:32:20;8.60;99.90
53282;DHT22;39167;52.794;6.892;2023-04-25T13:34:45;8.70;99.90
53282;DHT22;39167;52.794;6.892;2023-04-25T13:37:11;8.80;99.90
53282;DHT22;39167;52.794;6.892;2023-04-25T13:39:37;8.90;99.90
53282;DHT22;39167;52.794;6.892;2023-04-25T13:42:03;8.90;99.90
53282;DHT22;39167;52.794;6.892;2023-04-25T13:44:28;9.00;99.90
53282;DHT22;39167;52.794;6.892;2023-04-25T13:46:54;9.00;99.90
53282;DHT22;39167;52.794;6.892;2023-04-25T13:49:20;9.00;99.90
53282;DHT22;39167;52.794;6.892;2023-04-25T13:51:45;9.00;99.90
53282;DHT22;39167;52.794;6.892;2023-04-25T13:54:11;9.30;99.90
53282;DHT22;39167;52.794;6.892;2023-04-25T13:56:37;9.00;99.90
53282;DHT22;39167;52.794;6.892;2023-04-25T13:59:03;9.00;99.90
53282;DHT22;39167;52.794;6.892;2023-04-25T14:01:28;9.00;99.90
53282;DHT22;39167;52.794;6.892;2023-04-25T14:03:57;9.10;99.90
53282;DHT22;39167;52.794;6.892;2023-04-25T14:06:23;9.20;99.90
53282;DHT22;39167;52.794;6.892;2023-04-25T14:08:50;9.20;99.90
53282;DHT22;39167;52.794;6.892;2023-04-25T14:11:16;9.20;99.90
53282;DHT22;39167;52.794;6.892;2023-04-25T14:13:44;9.00;99.90
53282;DHT22;39167;52.794;6.892;2023-04-25T14:16:10;8.60;99.90
53282;DHT22;39167;52.794;6.892;2023-04-25T14:18:35;8.70;99.90
53282;DHT22;39167;52.794;6.892;2023-04-25T14:21:01;7.90;99.90
53282;DHT22;39167;52.794;6.892;2023-04-25T14:23:27;7.80;99.90
53282;DHT22;39167;52.794;6.892;2023-04-25T14:25:52;7.70;99.90
53282;DHT22;39167;52.794;6.892;2023-04-25T14:28:19;7.70;99.90
53282;DHT22;39167;52.794;6.892;2023-04-25T14:30:45;7.80;99.90
53282;DHT22;39167;52.794;6.892;2023-04-25T14:33:11;7.90;99.90
53282;DHT22;39167;52.794;6.892;2023-04-25T14:35:37;8.00;99.90
53282;DHT22;39167;52.794;6.892;2023-04-25T14:38:03;8.10;99.90
53282;DHT22;39167;52.794;6.892;2023-04-25T14:40:29;8.10;99.90
53282;DHT22;39167;52.794;6.892;2023-04-25T14:42:54;8.20;99.90
53282;DHT22;39167;52.794;6.892;2023-04-25T14:45:20;8.20;99.90
53282;DHT22;39167;52.794;6.892;2023-04-25T14:47:46;8.10;99.90
53282;DHT22;39167;52.794;6.892;2023-04-25T14:50:12;8.20;99.90
53282;DHT22;39167;52.794;6.892;2023-04-25T14:52:37;8.10;99.90
53282;DHT22;39167;52.794;6.892;2023-04-25T14:55:03;8.80;99.90
53282;DHT22;39167;52.794;6.892;2023-04-25T14:57:33;8.20;99.90
53282;DHT22;39167;52.794;6.892;2023-04-25T14:59:59;8.20;99.90
53282;DHT22;39167;52.794;6.892;2023-04-25T15:02:25;8.20;99.90
53282;DHT22;39167;52.794;6.892;2023-04-25T15:04:53;8.30;99.90
53282;DHT22;39167;52.794;6.892;2023-04-25T15:07:18;8.90;99.90
53282;DHT22;39167;52.794;6.892;2023-04-25T15:09:44;8.30;99.90
53282;DHT22;39167;52.794;6.892;2023-04-25T15:12:10;8.40;99.90
53282;DHT22;39167;52.794;6.892;2023-04-25T15:14:36;9.30;99.90
53282;DHT22;39167;52.794;6.892;2023-04-25T15:17:02;8.50;99.90
53282;DHT22;39167;52.794;6.892;2023-04-25T15:19:27;8.60;99.90
53282;DHT22;39167;52.794;6.892;2023-04-25T15:21:53;8.50;99.90
53282;DHT22;39167;52.794;6.892;2023-04-25T15:24:19;8.40;99.90
53282;DHT22;39167;52.794;6.892;2023-04-25T15:26:45;8.40;99.90
53282;DHT22;39167;52.794;6.892;2023-04-25T15:29:11;8.40;99.90
53282;DHT22;39167;52.794;6.892;2023-04-25T15:31:37;8.20;99.90
53282;DHT22;39167;52.794;6.892;2023-04-25T15:34:03;8.40;99.90
53282;DHT22;39167;52.794;6.892;2023-04-25T15:36:29;8.40;99.90
53282;DHT22;39167;52.794;6.892;2023-04-25T15:38:56;8.30;99.90
53282;DHT22;39167;52.794;6.892;2023-04-25T15:41:23;8.30;99.90
53282;DHT22;39167;52.794;6.892;2023-04-25T15:43:49;8.10;99.90
53282;DHT22;39167;52.794;6.892;2023-04-25T15:46:15;8.00;99.90
53282;DHT22;39167;52.794;6.892;2023-04-25T15:48:41;8.10;99.90
53282;DHT22;39167;52.794;6.892;2023-04-25T15:51:06;8.10;99.90